createdAt,value
2018-09-17T00:00:07.258Z,0
2018-09-17T00:01:07.195Z,0
2018-09-17T00:02:07.194Z,0
2018-09-17T00:03:07.260Z,0
2018-09-17T00:04:07.261Z,0
2018-09-17T00:05:07.190Z,0
2018-09-17T00:06:07.192Z,0
2018-09-17T00:07:07.263Z,0
2018-09-17T00:08:07.361Z,0
2018-09-17T00:09:07.263Z,0
2018-09-17T00:10:07.200Z,0
2018-09-17T00:11:07.198Z,0
2018-09-17T00:12:07.272Z,0
2018-09-17T00:13:07.201Z,0
2018-09-17T00:14:07.265Z,0
2018-09-17T00:15:07.268Z,0
2018-09-17T00:16:07.268Z,0
2018-09-17T00:17:07.268Z,0
2018-09-17T00:18:07.271Z,0
2018-09-17T00:19:07.208Z,0
2018-09-17T00:20:07.275Z,0
2018-09-17T00:21:07.208Z,0
2018-09-17T00:22:07.276Z,0
2018-09-17T00:23:07.272Z,0
2018-09-17T00:24:07.219Z,0
2018-09-17T00:25:07.214Z,0
2018-09-17T00:26:07.213Z,0
2018-09-17T00:27:07.377Z,0
2018-09-17T00:28:07.210Z,0
2018-09-17T00:29:07.310Z,0
2018-09-17T00:30:07.256Z,0
2018-09-17T00:31:07.279Z,0
2018-09-17T00:32:07.259Z,0
2018-09-17T00:33:07.280Z,0
2018-09-17T00:34:07.205Z,0
2018-09-17T00:35:07.207Z,0
2018-09-17T00:36:07.337Z,0
2018-09-17T00:37:07.280Z,0
2018-09-17T00:38:07.257Z,0
2018-09-17T00:39:07.203Z,0
2018-09-17T00:40:07.277Z,0
2018-09-17T00:41:07.199Z,0
2018-09-17T00:42:07.203Z,0
2018-09-17T00:43:07.174Z,0
2018-09-17T00:44:07.208Z,0
2018-09-17T00:45:07.285Z,0
2018-09-17T00:46:07.193Z,0
2018-09-17T00:47:07.208Z,0
2018-09-17T00:48:07.280Z,0
2018-09-17T00:49:07.310Z,0
2018-09-17T00:50:07.196Z,0
2018-09-17T00:51:07.286Z,0
2018-09-17T00:52:07.287Z,0
2018-09-17T00:53:07.212Z,0
2018-09-17T00:54:07.200Z,0
2018-09-17T00:55:07.200Z,0
2018-09-17T00:56:07.214Z,0
2018-09-17T00:57:07.292Z,0
2018-09-17T00:58:07.285Z,0
2018-09-17T00:59:07.333Z,0
2018-09-17T01:00:07.302Z,0
2018-09-17T01:01:07.274Z,0
2018-09-17T01:02:07.259Z,0
2018-09-17T01:03:07.307Z,0
2018-09-17T01:04:07.271Z,0
2018-09-17T01:05:07.263Z,0
2018-09-17T01:06:07.267Z,0
2018-09-17T01:07:07.208Z,0
2018-09-17T01:08:07.302Z,0
2018-09-17T01:09:07.222Z,0
2018-09-17T01:10:07.310Z,0
2018-09-17T01:11:07.282Z,0
2018-09-17T01:12:07.274Z,0
2018-09-17T01:13:07.333Z,0
2018-09-17T01:14:07.207Z,0
2018-09-17T01:15:07.247Z,0
2018-09-17T01:16:07.310Z,0
2018-09-17T01:17:07.354Z,0
2018-09-17T01:18:07.253Z,0
2018-09-17T01:19:07.332Z,0
2018-09-17T01:20:07.274Z,0
2018-09-17T01:21:07.389Z,0
2018-09-17T01:22:07.354Z,0
2018-09-17T01:23:07.319Z,0
2018-09-17T01:24:07.221Z,0
2018-09-17T01:25:07.237Z,0
2018-09-17T01:26:07.315Z,0
2018-09-17T01:27:07.325Z,0
2018-09-17T01:28:07.317Z,0
2018-09-17T01:29:07.256Z,0
2018-09-17T01:30:07.257Z,0
2018-09-17T01:31:07.332Z,0
2018-09-17T01:32:07.330Z,0
2018-09-17T01:33:07.298Z,0
2018-09-17T01:34:07.326Z,0
2018-09-17T01:35:07.258Z,0
2018-09-17T01:36:07.261Z,0
2018-09-17T01:37:07.262Z,0
2018-09-17T01:38:07.262Z,0
2018-09-17T01:39:07.243Z,0
2018-09-17T01:40:07.330Z,0
2018-09-17T01:41:07.264Z,0
2018-09-17T01:42:07.335Z,0
2018-09-17T01:43:07.352Z,0
2018-09-17T01:44:07.269Z,0
2018-09-17T01:45:07.365Z,0
2018-09-17T01:46:07.382Z,0
2018-09-17T01:47:07.337Z,0
2018-09-17T01:48:07.364Z,0
2018-09-17T01:49:07.251Z,0
2018-09-17T01:50:07.210Z,0
2018-09-17T01:51:07.257Z,0
2018-09-17T01:52:07.237Z,0
2018-09-17T01:53:07.332Z,0
2018-09-17T01:54:07.242Z,0
2018-09-17T01:55:07.337Z,0
2018-09-17T01:56:07.288Z,0
2018-09-17T01:57:07.329Z,0
2018-09-17T01:58:07.333Z,0
2018-09-17T01:59:07.347Z,0
2018-09-17T02:00:07.275Z,0
2018-09-17T02:01:07.277Z,0
2018-09-17T02:02:07.347Z,0
2018-09-17T02:03:07.342Z,0
2018-09-17T02:04:07.275Z,0
2018-09-17T02:05:07.350Z,0
2018-09-17T02:06:07.280Z,0
2018-09-17T02:07:07.288Z,0
2018-09-17T02:08:07.431Z,0
2018-09-17T02:09:07.341Z,0
2018-09-17T02:10:07.380Z,0
2018-09-17T02:11:07.292Z,0
2018-09-17T02:12:07.256Z,0
2018-09-17T02:13:07.324Z,0
2018-09-17T02:14:07.321Z,0
2018-09-17T02:15:07.382Z,0
2018-09-17T02:16:07.254Z,0
2018-09-17T02:17:07.351Z,0
2018-09-17T02:18:07.290Z,0
2018-09-17T02:19:07.348Z,0
2018-09-17T02:20:07.293Z,0
2018-09-17T02:21:07.293Z,0
2018-09-17T02:22:07.356Z,0
2018-09-17T02:23:07.357Z,0
2018-09-17T02:24:07.364Z,0
2018-09-17T02:25:07.290Z,0
2018-09-17T02:26:07.336Z,0
2018-09-17T02:27:07.366Z,0
2018-09-17T02:28:07.361Z,0
2018-09-17T02:29:07.297Z,0
2018-09-17T02:30:07.291Z,0
2018-09-17T02:31:07.297Z,0
2018-09-17T02:32:07.349Z,0
2018-09-17T02:33:07.260Z,0
2018-09-17T02:34:07.359Z,0
2018-09-17T02:35:07.302Z,0
2018-09-17T02:36:07.234Z,0
2018-09-17T02:37:07.351Z,0
2018-09-17T02:38:07.349Z,0
2018-09-17T02:39:07.232Z,0
2018-09-17T02:40:07.273Z,0
2018-09-17T02:41:07.321Z,0
2018-09-17T02:42:07.386Z,0
2018-09-17T02:43:07.229Z,0
2018-09-17T02:44:07.318Z,0
2018-09-17T02:45:07.248Z,0
2018-09-17T02:46:07.233Z,0
2018-09-17T02:47:07.293Z,0
2018-09-17T02:48:07.324Z,0
2018-09-17T02:49:07.404Z,0
2018-09-17T02:50:07.335Z,0
2018-09-17T02:51:07.417Z,0
2018-09-17T02:52:07.418Z,0
2018-09-17T02:53:07.303Z,0
2018-09-17T02:54:07.387Z,0
2018-09-17T02:55:07.377Z,0
2018-09-17T02:56:07.355Z,0
2018-09-17T02:57:07.282Z,0
2018-09-17T02:58:07.363Z,0
2018-09-17T02:59:07.378Z,0
2018-09-17T03:00:07.321Z,0
2018-09-17T03:01:07.378Z,0
2018-09-17T03:02:07.303Z,0
2018-09-17T03:03:07.380Z,0
2018-09-17T03:04:07.411Z,0
2018-09-17T03:05:07.381Z,0
2018-09-17T03:06:07.483Z,0
2018-09-17T03:07:07.383Z,0
2018-09-17T03:08:07.382Z,0
2018-09-17T03:09:07.357Z,0
2018-09-17T03:10:07.397Z,0
2018-09-17T03:11:07.330Z,0
2018-09-17T03:12:07.420Z,0
2018-09-17T03:13:07.435Z,0
2018-09-17T03:14:07.395Z,0
2018-09-17T03:15:07.397Z,0
2018-09-17T03:16:07.453Z,0
2018-09-17T03:17:07.422Z,0
2018-09-17T03:18:07.357Z,0
2018-09-17T03:19:07.395Z,0
2018-09-17T03:20:07.399Z,0
2018-09-17T03:21:07.421Z,0
2018-09-17T03:22:07.440Z,0
2018-09-17T03:23:07.305Z,0
2018-09-17T03:24:07.397Z,0
2018-09-17T03:25:07.306Z,0
2018-09-17T03:26:07.428Z,0
2018-09-17T03:27:07.365Z,0
2018-09-17T03:28:07.403Z,0
2018-09-17T03:29:07.409Z,0
2018-09-17T03:30:07.407Z,0
2018-09-17T03:31:07.398Z,0
2018-09-17T03:32:07.430Z,0
2018-09-17T03:33:07.411Z,0
2018-09-17T03:34:07.344Z,0
2018-09-17T03:35:07.412Z,0
2018-09-17T03:36:07.362Z,0
2018-09-17T03:37:07.415Z,0
2018-09-17T03:38:07.413Z,0
2018-09-17T03:39:07.404Z,0
2018-09-17T03:40:07.335Z,0
2018-09-17T03:41:07.402Z,0
2018-09-17T03:42:07.406Z,0
2018-09-17T03:43:07.332Z,0
2018-09-17T03:44:07.415Z,0
2018-09-17T03:45:07.409Z,0
2018-09-17T03:46:07.339Z,0
2018-09-17T03:47:07.410Z,0
2018-09-17T03:48:07.335Z,0
2018-09-17T03:49:07.435Z,0
2018-09-17T03:50:07.451Z,0
2018-09-17T03:51:07.423Z,0
2018-09-17T03:52:07.372Z,0
2018-09-17T03:53:07.399Z,0
2018-09-17T03:54:07.417Z,0
2018-09-17T03:55:07.397Z,0
2018-09-17T03:56:07.384Z,0
2018-09-17T03:57:07.460Z,0
2018-09-17T03:58:07.457Z,0
2018-09-17T03:59:07.357Z,0
2018-09-17T04:00:07.361Z,0
2018-09-17T04:01:07.432Z,0
2018-09-17T04:02:07.436Z,0
2018-09-17T04:03:07.362Z,0
2018-09-17T04:04:07.426Z,0
2018-09-17T04:05:07.432Z,0
2018-09-17T04:06:07.433Z,0
2018-09-17T04:07:07.367Z,0
2018-09-17T04:08:07.438Z,0
2018-09-17T04:09:07.457Z,0
2018-09-17T04:10:07.438Z,0
2018-09-17T04:11:07.446Z,0
2018-09-17T04:12:07.439Z,0
2018-09-17T04:13:07.441Z,0
2018-09-17T04:14:07.369Z,0
2018-09-17T04:15:07.368Z,0
2018-09-17T04:16:07.376Z,0
2018-09-17T04:17:07.323Z,0
2018-09-17T04:18:07.401Z,0
2018-09-17T04:19:07.404Z,0
2018-09-17T04:20:07.404Z,0
2018-09-17T04:21:07.417Z,0
2018-09-17T04:22:07.445Z,0
2018-09-17T04:23:07.474Z,0
2018-09-17T04:24:07.468Z,0
2018-09-17T04:25:07.417Z,0
2018-09-17T04:26:07.459Z,0
2018-09-17T04:27:07.342Z,0
2018-09-17T04:28:07.417Z,0
2018-09-17T04:29:07.479Z,0
2018-09-17T04:30:07.364Z,0
2018-09-17T04:31:07.389Z,0
2018-09-17T04:32:07.454Z,0
2018-09-17T04:33:07.528Z,0
2018-09-17T04:34:07.452Z,0
2018-09-17T04:35:07.426Z,0
2018-09-17T04:36:07.435Z,0
2018-09-17T04:37:07.368Z,0
2018-09-17T04:38:07.415Z,0
2018-09-17T04:39:07.388Z,0
2018-09-17T04:40:07.379Z,0
2018-09-17T04:41:07.448Z,0
2018-09-17T04:42:07.541Z,0
2018-09-17T04:43:07.451Z,0
2018-09-17T04:44:07.395Z,0
2018-09-17T04:45:07.379Z,0
2018-09-17T04:46:07.450Z,0
2018-09-17T04:47:07.443Z,0
2018-09-17T04:48:07.385Z,0
2018-09-17T04:49:07.433Z,0
2018-09-17T04:50:07.501Z,0
2018-09-17T04:51:07.460Z,0
2018-09-17T04:52:07.505Z,0
2018-09-17T04:53:07.384Z,0
2018-09-17T04:54:07.434Z,0
2018-09-17T04:55:07.411Z,0
2018-09-17T04:56:07.423Z,0
2018-09-17T04:57:07.405Z,0
2018-09-17T04:58:07.492Z,0
2018-09-17T04:59:07.407Z,0
2018-09-17T05:00:07.462Z,0
2018-09-17T05:01:07.374Z,0
2018-09-17T05:02:07.459Z,0
2018-09-17T05:03:07.399Z,0
2018-09-17T05:04:07.401Z,0
2018-09-17T05:05:07.376Z,0
2018-09-17T05:06:07.348Z,0
2018-09-17T05:07:07.429Z,0
2018-09-17T05:08:07.392Z,0
2018-09-17T05:09:07.495Z,0
2018-09-17T05:10:07.378Z,0
2018-09-17T05:11:07.414Z,0
2018-09-17T05:12:07.381Z,0
2018-09-17T05:13:07.561Z,0
2018-09-17T05:14:07.455Z,0
2018-09-17T05:15:07.436Z,0
2018-09-17T05:16:07.540Z,0
2018-09-17T05:17:07.477Z,0
2018-09-17T05:18:07.503Z,0
2018-09-17T05:19:07.483Z,0
2018-09-17T05:20:07.414Z,0
2018-09-17T05:21:07.481Z,0
2018-09-17T05:22:07.420Z,16
2018-09-17T05:23:07.418Z,18
2018-09-17T05:24:07.438Z,20
2018-09-17T05:25:07.486Z,20
2018-09-17T05:26:07.418Z,21
2018-09-17T05:27:07.386Z,23
2018-09-17T05:28:07.458Z,24
2018-09-17T05:29:07.422Z,25
2018-09-17T05:30:07.424Z,26
2018-09-17T05:31:07.487Z,27
2018-09-17T05:32:07.426Z,28
2018-09-17T05:33:07.492Z,30
2018-09-17T05:34:07.424Z,32
2018-09-17T05:35:07.499Z,33
2018-09-17T05:37:07.502Z,35
2018-09-17T05:38:07.387Z,35
2018-09-17T05:39:07.501Z,37
2018-09-17T05:40:07.490Z,38
2018-09-17T05:41:07.495Z,40
2018-09-17T05:42:07.493Z,42
2018-09-17T05:43:07.516Z,42
2018-09-17T05:44:07.570Z,43
2018-09-17T05:45:07.497Z,44
2018-09-17T05:46:07.518Z,44
2018-09-17T05:47:07.435Z,45
2018-09-17T05:48:07.468Z,47
2018-09-17T05:49:07.404Z,47
2018-09-17T05:50:07.500Z,47
2018-09-17T05:51:07.460Z,48
2018-09-17T05:52:07.439Z,49
2018-09-17T05:53:07.530Z,49
2018-09-17T05:54:07.538Z,49
2018-09-17T05:55:07.524Z,50
2018-09-17T05:56:07.426Z,50
2018-09-17T05:57:07.486Z,52
2018-09-17T05:58:07.414Z,52
2018-09-17T05:59:07.451Z,53
2018-09-17T06:00:07.480Z,52
2018-09-17T06:01:07.445Z,53
2018-09-17T06:02:07.511Z,52
2018-09-17T06:03:07.513Z,54
2018-09-17T06:04:07.510Z,55
2018-09-17T06:05:07.454Z,56
2018-09-17T06:06:07.523Z,56
2018-09-17T06:07:07.621Z,56
2018-09-17T06:08:07.446Z,57
2018-09-17T06:09:07.513Z,53
2018-09-17T06:10:07.446Z,59
2018-09-17T06:11:07.546Z,59
2018-09-17T06:12:07.519Z,61
2018-09-17T06:13:07.521Z,57
2018-09-17T06:14:07.450Z,58
2018-09-17T06:15:07.522Z,59
2018-09-17T06:16:07.520Z,64
2018-09-17T06:17:07.521Z,64
2018-09-17T06:18:07.452Z,65
2018-09-17T06:19:07.454Z,65
2018-09-17T06:20:07.527Z,66
2018-09-17T06:21:07.409Z,67
2018-09-17T06:22:07.415Z,69
2018-09-17T06:23:07.480Z,70
2018-09-17T06:24:07.529Z,72
2018-09-17T06:25:07.528Z,74
2018-09-17T06:26:07.530Z,74
2018-09-17T06:27:07.580Z,75
2018-09-17T06:28:07.462Z,79
2018-09-17T06:29:07.662Z,83
2018-09-17T06:30:07.497Z,85
2018-09-17T06:31:07.565Z,88
2018-09-17T06:32:07.503Z,90
2018-09-17T06:33:07.473Z,92
2018-09-17T06:34:07.552Z,94
2018-09-17T06:35:07.560Z,97
2018-09-17T06:36:07.579Z,100
2018-09-17T06:37:07.479Z,104
2018-09-17T06:38:07.536Z,107
2018-09-17T06:39:07.513Z,111
2018-09-17T06:40:07.538Z,114
2018-09-17T06:41:07.473Z,116
2018-09-17T06:42:07.470Z,120
2018-09-17T06:43:07.476Z,125
2018-09-17T06:44:07.543Z,127
2018-09-17T06:45:07.475Z,128
2018-09-17T06:46:07.476Z,133
2018-09-17T06:47:07.479Z,137
2018-09-17T06:48:07.547Z,141
2018-09-17T06:49:07.480Z,144
2018-09-17T06:50:07.469Z,144
2018-09-17T06:51:07.499Z,148
2018-09-17T06:52:07.519Z,150
2018-09-17T06:53:07.504Z,153
2018-09-17T06:54:07.579Z,157
2018-09-17T06:55:07.529Z,221
2018-09-17T06:56:07.506Z,210
2018-09-17T06:57:07.524Z,200
2018-09-17T06:58:07.452Z,229
2018-09-17T06:59:07.493Z,232
2018-09-17T07:00:07.525Z,229
2018-09-17T07:01:07.580Z,236
2018-09-17T07:02:07.533Z,255
2018-09-17T07:03:07.465Z,266
2018-09-17T07:04:07.591Z,252
2018-09-17T07:05:07.588Z,242
2018-09-17T07:06:07.602Z,222
2018-09-17T07:07:07.578Z,209
2018-09-17T07:08:07.559Z,201
2018-09-17T07:09:07.469Z,193
2018-09-17T07:10:07.492Z,195
2018-09-17T07:11:07.491Z,215
2018-09-17T07:12:07.495Z,221
2018-09-17T07:13:07.593Z,226
2018-09-17T07:14:07.567Z,214
2018-09-17T07:15:07.645Z,210
2018-09-17T07:16:07.565Z,212
2018-09-17T07:17:07.528Z,212
2018-09-17T07:18:07.616Z,220
2018-09-17T07:19:07.565Z,222
2018-09-17T07:20:07.501Z,237
2018-09-17T07:21:07.565Z,252
2018-09-17T07:22:07.500Z,280
2018-09-17T07:23:07.504Z,296
2018-09-17T07:24:07.506Z,333
2018-09-17T07:25:07.594Z,342
2018-09-17T07:26:07.671Z,362
2018-09-17T07:27:07.509Z,393
2018-09-17T07:28:07.569Z,392
2018-09-17T07:29:07.505Z,396
2018-09-17T07:30:07.511Z,402
2018-09-17T07:31:07.573Z,414
2018-09-17T07:32:07.538Z,392
2018-09-17T07:33:07.513Z,395
2018-09-17T07:34:07.579Z,368
2018-09-17T07:35:07.580Z,369
2018-09-17T07:36:07.583Z,357
2018-09-17T07:37:07.508Z,345
2018-09-17T07:38:07.584Z,358
2018-09-17T07:39:07.540Z,364
2018-09-17T07:40:07.548Z,366
2018-09-17T07:41:07.498Z,321
2018-09-17T07:42:07.511Z,326
2018-09-17T07:43:07.618Z,315
2018-09-17T07:44:07.559Z,320
2018-09-17T07:45:07.583Z,345
2018-09-17T07:46:07.523Z,356
2018-09-17T07:47:07.561Z,301
2018-09-17T07:48:07.582Z,332
2018-09-17T07:49:07.617Z,361
2018-09-17T07:50:07.470Z,358
2018-09-17T07:51:07.588Z,372
2018-09-17T07:52:07.584Z,364
2018-09-17T07:53:07.636Z,391
2018-09-17T07:54:07.588Z,385
2018-09-17T07:55:07.596Z,342
2018-09-17T07:56:07.533Z,419
2018-09-17T07:57:07.592Z,435
2018-09-17T07:58:07.528Z,426
2018-09-17T07:59:07.596Z,451
2018-09-17T08:00:07.512Z,456
2018-09-17T08:01:07.561Z,440
2018-09-17T08:02:07.550Z,422
2018-09-17T08:03:07.599Z,435
2018-09-17T08:04:07.560Z,456
2018-09-17T08:05:07.568Z,458
2018-09-17T08:06:07.596Z,486
2018-09-17T08:07:07.672Z,503
2018-09-17T08:08:07.599Z,488
2018-09-17T08:09:07.571Z,499
2018-09-17T08:10:07.620Z,492
2018-09-17T08:11:07.536Z,498
2018-09-17T08:12:07.535Z,514
2018-09-17T08:13:07.600Z,526
2018-09-17T08:14:07.602Z,534
2018-09-17T08:15:07.603Z,540
2018-09-17T08:16:07.538Z,547
2018-09-17T08:17:07.692Z,538
2018-09-17T08:18:07.603Z,559
2018-09-17T08:19:07.540Z,525
2018-09-17T08:20:07.682Z,525
2018-09-17T08:21:07.642Z,540
2018-09-17T08:22:07.529Z,555
2018-09-17T08:23:07.634Z,553
2018-09-17T08:24:07.582Z,567
2018-09-17T08:25:07.532Z,580
2018-09-17T08:26:07.594Z,571
2018-09-17T08:27:07.633Z,582
2018-09-17T08:28:07.582Z,583
2018-09-17T08:29:07.576Z,579
2018-09-17T08:30:07.625Z,593
2018-09-17T08:31:07.615Z,600
2018-09-17T08:32:07.516Z,604
2018-09-17T08:33:07.553Z,604
2018-09-17T08:34:07.551Z,592
2018-09-17T08:35:07.620Z,598
2018-09-17T08:36:07.625Z,601
2018-09-17T08:37:07.555Z,624
2018-09-17T08:38:07.596Z,585
2018-09-17T08:39:07.561Z,562
2018-09-17T08:40:07.625Z,520
2018-09-17T08:41:07.559Z,541
2018-09-17T08:42:07.624Z,538
2018-09-17T08:43:07.560Z,622
2018-09-17T08:44:07.557Z,643
2018-09-17T08:45:07.636Z,639
2018-09-17T08:46:07.563Z,642
2018-09-17T08:47:07.568Z,636
2018-09-17T08:48:07.623Z,645
2018-09-17T08:49:07.631Z,500
2018-09-17T08:50:07.591Z,656
2018-09-17T08:51:07.566Z,666
2018-09-17T08:52:07.589Z,665
2018-09-17T08:53:07.628Z,659
2018-09-17T08:54:07.652Z,679
2018-09-17T08:55:07.661Z,688
2018-09-17T08:56:07.664Z,690
2018-09-17T08:57:07.571Z,696
2018-09-17T08:58:07.674Z,700
2018-09-17T08:59:07.670Z,684
2018-09-17T09:00:07.596Z,697
2018-09-17T09:01:07.615Z,701
2018-09-17T09:02:07.639Z,651
2018-09-17T09:03:07.614Z,720
2018-09-17T09:04:07.678Z,723
2018-09-17T09:05:07.736Z,669
2018-09-17T09:06:07.660Z,697
2018-09-17T09:07:07.610Z,696
2018-09-17T09:08:07.664Z,694
2018-09-17T09:09:07.668Z,678
2018-09-17T09:10:07.677Z,556
2018-09-17T09:11:07.653Z,512
2018-09-17T09:12:07.647Z,510
2018-09-17T09:13:07.665Z,408
2018-09-17T09:14:07.646Z,571
2018-09-17T09:15:07.580Z,653
2018-09-17T09:16:07.649Z,663
2018-09-17T09:17:07.581Z,699
2018-09-17T09:18:07.650Z,697
2018-09-17T09:19:07.650Z,731
2018-09-17T09:20:07.634Z,739
2018-09-17T09:21:07.634Z,715
2018-09-17T09:22:07.544Z,706
2018-09-17T09:23:07.511Z,628
2018-09-17T09:24:07.584Z,723
2018-09-17T09:25:07.580Z,744
2018-09-17T09:26:07.596Z,763
2018-09-17T09:27:07.579Z,773
2018-09-17T09:28:07.529Z,775
2018-09-17T09:29:07.639Z,613
2018-09-17T09:30:07.658Z,736
2018-09-17T09:31:07.586Z,756
2018-09-17T09:32:07.659Z,730
2018-09-17T09:33:07.658Z,763
2018-09-17T09:34:07.666Z,701
2018-09-17T09:35:07.663Z,677
2018-09-17T09:36:07.661Z,691
2018-09-17T09:37:07.553Z,675
2018-09-17T09:38:07.708Z,649
2018-09-17T09:39:07.596Z,668
2018-09-17T09:40:07.682Z,652
2018-09-17T09:41:07.648Z,637
2018-09-17T09:42:07.553Z,633
2018-09-17T09:43:07.656Z,660
2018-09-17T09:44:07.690Z,683
2018-09-17T09:45:07.537Z,694
2018-09-17T09:46:07.652Z,724
2018-09-17T09:47:07.620Z,729
2018-09-17T09:48:07.625Z,711
2018-09-17T09:49:07.662Z,715
2018-09-17T09:50:07.605Z,650
2018-09-17T09:51:07.569Z,666
2018-09-17T09:52:07.603Z,692
2018-09-17T09:53:07.688Z,622
2018-09-17T09:54:07.679Z,575
2018-09-17T09:55:07.607Z,621
2018-09-17T09:56:07.616Z,661
2018-09-17T09:57:07.610Z,675
2018-09-17T09:58:07.681Z,681
2018-09-17T09:59:07.681Z,692
2018-09-17T10:00:07.637Z,685
2018-09-17T10:01:07.627Z,679
2018-09-17T10:02:07.636Z,725
2018-09-17T10:03:07.668Z,765
2018-09-17T10:04:07.584Z,761
2018-09-17T10:05:07.645Z,765
2018-09-17T10:06:07.670Z,763
2018-09-17T10:07:07.567Z,756
2018-09-17T10:08:07.591Z,730
2018-09-17T10:09:07.589Z,709
2018-09-17T10:10:07.670Z,674
2018-09-17T10:11:07.642Z,619
2018-09-17T10:12:07.674Z,588
2018-09-17T10:13:07.671Z,666
2018-09-17T10:14:07.590Z,701
2018-09-17T10:15:07.550Z,693
2018-09-17T10:16:07.671Z,680
2018-09-17T10:17:07.560Z,639
2018-09-17T10:18:07.585Z,665
2018-09-17T10:19:07.622Z,637
2018-09-17T10:20:07.631Z,604
2018-09-17T10:21:07.632Z,558
2018-09-17T10:22:07.660Z,521
2018-09-17T10:23:07.716Z,553
2018-09-17T10:24:07.593Z,575
2018-09-17T10:25:07.614Z,568
2018-09-17T10:26:07.619Z,627
2018-09-17T10:27:07.733Z,678
2018-09-17T10:28:07.649Z,726
2018-09-17T10:29:07.657Z,768
2018-09-17T10:30:07.639Z,781
2018-09-17T10:31:07.607Z,803
2018-09-17T10:32:07.643Z,814
2018-09-17T10:33:07.725Z,800
2018-09-17T10:34:07.723Z,796
2018-09-17T10:35:07.654Z,819
2018-09-17T10:36:07.731Z,810
2018-09-17T10:37:07.662Z,801
2018-09-17T10:38:07.664Z,807
2018-09-17T10:39:07.672Z,792
2018-09-17T10:40:07.709Z,773
2018-09-17T10:41:07.739Z,662
2018-09-17T10:42:07.641Z,614
2018-09-17T10:43:07.640Z,687
2018-09-17T10:44:07.715Z,748
2018-09-17T10:45:07.645Z,774
2018-09-17T10:46:07.712Z,776
2018-09-17T10:47:07.674Z,777
2018-09-17T10:48:07.714Z,815
2018-09-17T10:49:07.717Z,844
2018-09-17T10:50:07.647Z,854
2018-09-17T10:51:07.678Z,829
2018-09-17T10:52:07.654Z,830
2018-09-17T10:53:07.720Z,758
2018-09-17T10:54:07.714Z,754
2018-09-17T10:55:07.718Z,773
2018-09-17T10:56:07.650Z,791
2018-09-17T10:57:07.719Z,805
2018-09-17T10:58:07.650Z,812
2018-09-17T10:59:07.722Z,807
2018-09-17T11:00:07.589Z,749
2018-09-17T11:01:07.709Z,759
2018-09-17T11:02:07.627Z,787
2018-09-17T11:03:07.719Z,820
2018-09-17T11:04:07.614Z,837
2018-09-17T11:05:07.712Z,791
2018-09-17T11:06:07.645Z,779
2018-09-17T11:07:07.647Z,815
2018-09-17T11:08:07.635Z,839
2018-09-17T11:09:07.664Z,804
2018-09-17T11:10:07.684Z,841
2018-09-17T11:11:07.747Z,799
2018-09-17T11:12:07.687Z,783
2018-09-17T11:13:07.698Z,785
2018-09-17T11:14:07.685Z,786
2018-09-17T11:15:07.712Z,768
2018-09-17T11:16:07.761Z,728
2018-09-17T11:17:07.706Z,696
2018-09-17T11:18:07.775Z,707
2018-09-17T11:19:07.776Z,713
2018-09-17T11:20:07.762Z,710
2018-09-17T11:21:07.767Z,712
2018-09-17T11:22:07.731Z,702
2018-09-17T11:23:07.768Z,696
2018-09-17T11:24:07.649Z,684
2018-09-17T11:25:07.789Z,688
2018-09-17T11:26:07.761Z,683
2018-09-17T11:27:07.761Z,698
2018-09-17T11:28:07.775Z,703
2018-09-17T11:29:07.782Z,750
2018-09-17T11:30:07.774Z,772
2018-09-17T11:31:07.734Z,744
2018-09-17T11:32:07.744Z,744
2018-09-17T11:33:07.636Z,753
2018-09-17T11:34:07.737Z,733
2018-09-17T11:35:07.730Z,713
2018-09-17T11:36:07.655Z,658
2018-09-17T11:37:07.739Z,639
2018-09-17T11:38:07.651Z,663
2018-09-17T11:39:07.653Z,638
2018-09-17T11:40:07.685Z,618
2018-09-17T11:41:07.742Z,603
2018-09-17T11:42:07.706Z,598
2018-09-17T11:43:07.677Z,589
2018-09-17T11:44:07.726Z,576
2018-09-17T11:45:07.650Z,590
2018-09-17T11:46:07.708Z,594
2018-09-17T11:47:07.647Z,633
2018-09-17T11:48:07.657Z,620
2018-09-17T11:49:07.675Z,587
2018-09-17T11:50:07.718Z,592
2018-09-17T11:51:07.656Z,578
2018-09-17T11:52:07.654Z,552
2018-09-17T11:53:07.753Z,546
2018-09-17T11:54:07.800Z,534
2018-09-17T11:55:07.704Z,544
2018-09-17T11:56:07.612Z,565
2018-09-17T11:57:07.660Z,566
2018-09-17T11:58:07.780Z,566
2018-09-17T11:59:07.623Z,614
2018-09-17T12:00:07.718Z,638
2018-09-17T12:01:07.697Z,591
2018-09-17T12:02:07.691Z,578
2018-09-17T12:03:07.753Z,581
2018-09-17T12:04:07.635Z,554
2018-09-17T12:05:07.639Z,572
2018-09-17T12:06:07.635Z,599
2018-09-17T12:07:07.724Z,621
2018-09-17T12:08:07.692Z,620
2018-09-17T12:09:07.725Z,632
2018-09-17T12:10:07.632Z,626
2018-09-17T12:11:07.739Z,618
2018-09-17T12:12:07.708Z,628
2018-09-17T12:13:07.804Z,613
2018-09-17T12:14:07.749Z,621
2018-09-17T12:15:07.751Z,627
2018-09-17T12:16:07.751Z,632
2018-09-17T12:17:07.790Z,597
2018-09-17T12:18:07.696Z,601
2018-09-17T12:19:07.797Z,599
2018-09-17T12:20:07.737Z,596
2018-09-17T12:21:07.811Z,611
2018-09-17T12:22:07.746Z,615
2018-09-17T12:23:07.813Z,608
2018-09-17T12:24:07.680Z,608
2018-09-17T12:25:07.752Z,580
2018-09-17T12:26:07.763Z,574
2018-09-17T12:27:07.688Z,611
2018-09-17T12:28:07.745Z,614
2018-09-17T12:29:07.751Z,623
2018-09-17T12:30:07.744Z,607
2018-09-17T12:31:07.719Z,597
2018-09-17T12:32:07.788Z,567
2018-09-17T12:33:07.787Z,598
2018-09-17T12:34:07.722Z,585
2018-09-17T12:35:07.719Z,576
2018-09-17T12:36:07.788Z,545
2018-09-17T12:37:07.732Z,537
2018-09-17T12:38:07.755Z,488
2018-09-17T12:39:07.791Z,489
2018-09-17T12:40:07.728Z,503
2018-09-17T12:41:07.791Z,493
2018-09-17T12:42:07.728Z,494
2018-09-17T12:43:07.730Z,485
2018-09-17T12:44:07.728Z,479
2018-09-17T12:45:07.747Z,467
2018-09-17T12:46:07.796Z,483
2018-09-17T12:47:07.730Z,490
2018-09-17T12:48:07.731Z,487
2018-09-17T12:49:07.734Z,490
2018-09-17T12:50:07.694Z,487
2018-09-17T12:51:07.784Z,505
2018-09-17T12:52:07.784Z,529
2018-09-17T12:53:07.801Z,542
2018-09-17T12:54:07.765Z,554
2018-09-17T12:55:07.766Z,594
2018-09-17T12:56:07.828Z,604
2018-09-17T12:57:07.838Z,594
2018-09-17T12:58:07.772Z,597
2018-09-17T12:59:07.768Z,592
2018-09-17T13:00:07.832Z,611
2018-09-17T13:01:07.752Z,602
2018-09-17T13:02:07.767Z,611
2018-09-17T13:03:07.676Z,638
2018-09-17T13:04:07.672Z,634
2018-09-17T13:05:07.678Z,673
2018-09-17T13:06:07.685Z,588
2018-09-17T13:07:07.709Z,605
2018-09-17T13:08:07.799Z,680
2018-09-17T13:09:07.764Z,678
2018-09-17T13:10:07.769Z,675
2018-09-17T13:11:07.816Z,644
2018-09-17T13:12:07.816Z,595
2018-09-17T13:13:07.820Z,577
2018-09-17T13:14:07.816Z,567
2018-09-17T13:15:07.749Z,543
2018-09-17T13:16:07.754Z,550
2018-09-17T13:17:07.754Z,548
2018-09-17T13:18:07.752Z,589
2018-09-17T13:19:07.818Z,571
2018-09-17T13:20:07.754Z,598
2018-09-17T13:21:07.859Z,601
2018-09-17T13:22:07.847Z,618
2018-09-17T13:23:07.840Z,613
2018-09-17T13:24:07.724Z,604
2018-09-17T13:25:07.800Z,592
2018-09-17T13:26:07.832Z,593
2018-09-17T13:27:07.803Z,606
2018-09-17T13:28:07.734Z,614
2018-09-17T13:29:07.727Z,637
2018-09-17T13:30:07.847Z,638
2018-09-17T13:31:07.757Z,657
2018-09-17T13:32:07.766Z,600
2018-09-17T13:33:07.824Z,637
2018-09-17T13:34:07.781Z,632
2018-09-17T13:35:07.712Z,626
2018-09-17T13:36:07.824Z,639
2018-09-17T13:37:07.774Z,623
2018-09-17T13:38:07.829Z,611
2018-09-17T13:39:07.750Z,571
2018-09-17T13:40:07.724Z,534
2018-09-17T13:41:07.845Z,523
2018-09-17T13:42:07.772Z,544
2018-09-17T13:43:07.777Z,548
2018-09-17T13:44:07.823Z,569
2018-09-17T13:45:07.838Z,544
2018-09-17T13:46:07.776Z,517
2018-09-17T13:47:07.845Z,497
2018-09-17T13:48:07.867Z,500
2018-09-17T13:49:07.784Z,492
2018-09-17T13:50:07.757Z,492
2018-09-17T13:51:07.745Z,472
2018-09-17T13:52:07.744Z,448
2018-09-17T13:53:07.911Z,471
2018-09-17T13:54:07.775Z,471
2018-09-17T13:55:07.736Z,454
2018-09-17T13:56:07.797Z,444
2018-09-17T13:57:07.731Z,456
2018-09-17T13:58:07.801Z,450
2018-09-17T13:59:07.770Z,437
2018-09-17T14:00:07.844Z,408
2018-09-17T14:01:07.870Z,430
2018-09-17T14:02:07.785Z,423
2018-09-17T14:03:07.786Z,413
2018-09-17T14:04:07.968Z,405
2018-09-17T14:05:07.811Z,409
2018-09-17T14:06:07.787Z,415
2018-09-17T14:07:07.877Z,420
2018-09-17T14:08:07.822Z,427
2018-09-17T14:09:07.789Z,423
2018-09-17T14:10:07.910Z,439
2018-09-17T14:11:07.729Z,441